Airfield :
LOGIN :

Register | Disclaimer

   EN    FR    IT 

 










Legend :    VFR   Marginal VFR   IFR   Intensive IFR   Very Intensive IFR
Visi :
Ceiling :
>= 8 km
>= 3000ft
5 to 8 km
1000 to 3000 ft
1500m to 5 km
500 to 1000 ft
800 to 1500m
200 to 500 ft
< 800m
< 200 ft
Symbols :   Thunderstorms  Fog  Heavy snow  Heavy precipitations  Wind > 20 kt
SIGMETs :     Misc.  Thunderstorms  Icing  Turbulence  Mountain Waves  Volcanic Ashes






- Airport Elevation : 308 ft


ESCF - Malmen AB

CURRENT METAR :
  • 090120Z AUTO 22013KT 9999 OVC026/// 06/03 Q0979

EXPIRED METARs :
  • 090050Z AUTO 22013KT 9999 BKN025/// OVC034/// 06/03 Q0979
  • 090020Z AUTO 22013KT 9999 FEW027/// SCT036/// 05/03 Q0979
  • 082350Z AUTO 22012KT 9999 BKN037/// 05/03 Q0979
  • 082320Z AUTO 22014KT 9999 SCT026/// BKN076/// 06/03 Q0978
  • 082250Z AUTO 23014KT 9999 OVC027/// 06/03 Q0979

Expired Forecast.



MET'MAP, your aeronautical weather chart ! - Copyright ORBIFLY December 2007 - Disclaimer

ORBIFLY MET'MAP TEAM :

Programming & Development : Alexandra Zaïnal
Concept & original design : Baudouin d'Aumeries
Assistance for programming : Marc-Olivier Méhu
Technical & hardware support : Manuel Goepfert

Contact : metmap@orbifly.com




SOURCES & CREDITS :

   NOAA